Sant Just Desvern, Spain
Current Conditions -  °F | °C
As of 9:00 PM on Thursday 18 Dec 2014 (Local Time) from LEBL Reporting Station
Clear Clear  
Wind Chill: 59°   Ceiling: Unl
Heat Index: 59°   Visibility: 6mi
Dew Point: 48°   Wind: 10mph
Humidity: 67%   Direction: 310°NW
Pressure: 30.3"   Gusts: NA
Location:  41.39°N, 2.08°E
Report Text: LEBL 182000Z 31009KT 260V340 CAVOK 15/09 Q1026 NOSIG
Loading
Personal Weather Stations






























Interactive Weather Map New forecast layout! Learn more

10-Day Weather Forecast

Advertisements
Track Severe Weather on mobile